Time;durP1;ratioP1;P1;durP2;ratioP2;P2;SDS_P1;SDS_P2;PMS_P1;PMS_P2;Temp;Humidity;BMP_temperature;BMP_pressure;BME280_temperature;BME280_humidity;BME280_pressure;Samples;Min_cycle;Max_cycle;Signal;HPM_P1;HPM_P2
2022/06/13 00:01:09;;;;;;;3.60;2.40;;;;;;;;;;5111180;28;20452;-68
2022/06/13 00:03:36;;;;;;;2.97;2.10;;;;;;;;;;5111464;28;20462;-68
2022/06/13 00:06:03;;;;;;;2.10;1.60;;;;;;;;;;5111181;28;20452;-68
2022/06/13 00:08:31;;;;;;;2.97;2.20;;;;;;;;;;5111191;28;20440;-68
2022/06/13 00:10:58;;;;;;;6.07;2.30;;;;;;;;;;5110775;28;20820;-69
2022/06/13 00:13:26;;;;;;;2.50;1.83;;;;;;;;;;5111542;28;20452;-68
2022/06/13 00:15:53;;;;;;;2.13;1.93;;;;;;;;;;5111151;28;20450;-68
2022/06/13 00:18:21;;;;;;;3.07;2.00;;;;;;;;;;5110955;28;20905;-69
2022/06/13 00:20:48;;;;;;;2.40;2.10;;;;;;;;;;5110113;28;20986;-69
2022/06/13 00:23:15;;;;;;;2.17;1.97;;;;;;;;;;5111571;28;20448;-67
2022/06/13 00:25:42;;;;;;;1.57;1.47;;;;;;;;;;5111078;28;20922;-69
2022/06/13 00:28:09;;;;;;;2.70;2.00;;;;;;;;;;5110897;28;20444;-68
2022/06/13 00:30:38;;;;;;;2.10;1.90;;;;;;;;;;5110870;28;20460;-69
2022/06/13 00:33:05;;;;;;;2.40;2.13;;;;;;;;;;5109976;28;21024;-69
2022/06/13 00:35:32;;;;;;;2.60;2.00;;;;;;;;;;5110769;28;20947;-69
2022/06/13 00:37:59;;;;;;;2.37;2.17;;;;;;;;;;5110484;28;20451;-67
2022/06/13 00:40:26;;;;;;;3.40;2.10;;;;;;;;;;5110482;28;20839;-68
2022/06/13 00:42:54;;;;;;;2.70;2.10;;;;;;;;;;5110592;28;20496;-67
2022/06/13 00:45:22;;;;;;;2.07;1.73;;;;;;;;;;5110901;28;20451;-69
2022/06/13 00:47:51;;;;;;;3.80;3.10;;;;;;;;;;5110095;28;20939;-66
2022/06/13 00:50:21;;;;;;;4.13;2.33;;;;;;;;;;5110112;28;20954;-70
2022/06/13 00:52:50;;;;;;;2.73;2.43;;;;;;;;;;5110093;28;20447;-70
2022/06/13 00:55:22;;;;;;;2.93;2.60;;;;;;;;;;5110766;28;20785;-69
2022/06/13 00:57:49;;;;;;;2.93;1.50;;;;;;;;;;5110404;28;20440;-70
2022/06/13 01:00:18;;;;;;;2.13;1.93;;;;;;;;;;5109293;28;20558;-70
2022/06/13 01:02:46;;;;;;;2.70;2.50;;;;;;;;;;5110614;28;20444;-69
2022/06/13 01:05:17;;;;;;;2.30;2.00;;;;;;;;;;5112210;27;20550;-69
2022/06/13 01:07:45;;;;;;;3.13;2.83;;;;;;;;;;5109933;28;20458;-69
2022/06/13 01:12:57;;;;;;;3.77;2.20;;;;;;;;;;5106866;28;20550;-69
2022/06/13 01:15:31;;;;;;;2.70;1.90;;;;;;;;;;5111038;28;20452;-69
2022/06/13 01:18:04;;;;;;;2.57;2.27;;;;;;;;;;5110379;28;20455;-70
2022/06/13 01:20:45;;;;;;;5.57;2.03;;;;;;;;;;5110509;28;20516;-70
2022/06/13 01:23:27;;;;;;;2.40;2.00;;;;;;;;;;5110568;28;20432;-71
2022/06/13 01:26:07;;;;;;;2.60;2.20;;;;;;;;;;5097849;28;20471;-71
2022/06/13 01:28:47;;;;;;;3.27;1.73;;;;;;;;;;5110254;28;20455;-71
2022/06/13 01:31:17;;;;;;;2.47;1.90;;;;;;;;;;5110878;28;20444;-71
2022/06/13 01:33:50;;;;;;;3.77;2.27;;;;;;;;;;5110469;28;20444;-71
2022/06/13 01:36:24;;;;;;;3.00;2.13;;;;;;;;;;5107982;28;20432;-71
2022/06/13 01:38:58;;;;;;;2.90;2.20;;;;;;;;;;5109322;28;20953;-71
2022/06/13 01:41:26;;;;;;;3.83;2.20;;;;;;;;;;5109926;28;20474;-71
2022/06/13 01:43:57;;;;;;;2.93;2.50;;;;;;;;;;5110331;28;20799;-71
2022/06/13 01:46:30;;;;;;;4.70;2.47;;;;;;;;;;5110310;28;20535;-71
2022/06/13 01:49:00;;;;;;;2.50;2.30;;;;;;;;;;5105831;28;20496;-71
2022/06/13 01:51:29;;;;;;;2.30;2.10;;;;;;;;;;5110427;28;20494;-71
2022/06/13 01:54:00;;;;;;;2.60;1.93;;;;;;;;;;5105205;28;20448;-71
2022/06/13 01:56:29;;;;;;;2.93;2.70;;;;;;;;;;5109767;28;20845;-71
2022/06/13 01:58:57;;;;;;;2.50;2.27;;;;;;;;;;5097436;28;20795;-71
2022/06/13 02:01:32;;;;;;;2.40;2.00;;;;;;;;;;5109062;28;20485;-71
2022/06/13 02:04:02;;;;;;;2.50;2.30;;;;;;;;;;5109743;28;20435;-71
2022/06/13 02:06:30;;;;;;;2.47;2.27;;;;;;;;;;5109759;28;20454;-71
2022/06/13 02:08:58;;;;;;;2.93;2.20;;;;;;;;;;5109401;28;20459;-71
2022/06/13 02:11:28;;;;;;;3.03;2.50;;;;;;;;;;5111069;28;20838;-71
2022/06/13 02:13:58;;;;;;;3.03;1.77;;;;;;;;;;5113903;28;20461;-71
2022/06/13 02:16:28;;;;;;;2.50;1.93;;;;;;;;;;5114185;28;20440;-71
2022/06/13 02:18:59;;;;;;;2.47;2.27;;;;;;;;;;5112689;28;20451;-71
2022/06/13 02:21:29;;;;;;;3.80;2.63;;;;;;;;;;5103688;28;20465;-71
2022/06/13 02:23:57;;;;;;;2.60;2.10;;;;;;;;;;5112461;28;20447;-71
2022/06/13 02:26:29;;;;;;;3.07;2.10;;;;;;;;;;5113951;28;20482;-71
2022/06/13 02:28:58;;;;;;;3.00;2.47;;;;;;;;;;5113005;28;20447;-71
2022/06/13 02:31:29;;;;;;;2.60;2.13;;;;;;;;;;5113740;28;20459;-71
2022/06/13 02:33:57;;;;;;;3.77;2.40;;;;;;;;;;5102601;28;20546;-71
2022/06/13 02:36:27;;;;;;;4.07;2.30;;;;;;;;;;5113821;28;20461;-71
2022/06/13 02:38:58;;;;;;;2.40;1.73;;;;;;;;;;5103045;28;20447;-71
2022/06/13 02:41:28;;;;;;;2.73;1.97;;;;;;;;;;5113175;28;20490;-71
2022/06/13 02:43:59;;;;;;;2.80;2.40;;;;;;;;;;5113072;28;20448;-71
2022/06/13 02:46:31;;;;;;;2.73;1.70;;;;;;;;;;5113547;28;20444;-71
2022/06/13 02:49:02;;;;;;;2.23;2.00;;;;;;;;;;5112164;28;20450;-71
2022/06/13 02:51:34;;;;;;;2.17;1.60;;;;;;;;;;5113305;28;20455;-70
2022/06/13 02:54:02;;;;;;;4.00;2.13;;;;;;;;;;5113102;28;20448;-70
2022/06/13 02:56:33;;;;;;;1.93;1.73;;;;;;;;;;5113148;28;20462;-70
2022/06/13 02:59:06;;;;;;;4.27;2.20;;;;;;;;;;5112601;28;20804;-71
2022/06/13 03:01:37;;;;;;;2.70;1.87;;;;;;;;;;5109271;28;20475;-70
2022/06/13 03:04:09;;;;;;;2.23;1.73;;;;;;;;;;5107820;28;20458;-70
2022/06/13 03:06:41;;;;;;;2.20;1.93;;;;;;;;;;5113015;28;20444;-70
2022/06/13 03:09:11;;;;;;;2.53;2.10;;;;;;;;;;5112395;28;20501;-70
2022/06/13 03:11:40;;;;;;;2.47;1.73;;;;;;;;;;5113004;28;20456;-70
2022/06/13 03:14:12;;;;;;;2.63;2.23;;;;;;;;;;5110025;28;20459;-70
2022/06/13 03:16:44;;;;;;;1.90;1.70;;;;;;;;;;5113008;28;20444;-70
2022/06/13 03:19:14;;;;;;;5.23;2.80;;;;;;;;;;5098945;28;20439;-70
2022/06/13 03:21:45;;;;;;;2.53;1.50;;;;;;;;;;5112487;28;20491;-70
2022/06/13 03:24:15;;;;;;;3.00;2.00;;;;;;;;;;5111763;28;20455;-70
2022/06/13 03:26:46;;;;;;;2.40;1.40;;;;;;;;;;5112240;28;20482;-70
2022/06/13 03:29:17;;;;;;;1.53;1.37;;;;;;;;;;5112519;28;20440;-70
2022/06/13 03:31:49;;;;;;;1.63;1.30;;;;;;;;;;5112335;28;20481;-70
2022/06/13 03:34:19;;;;;;;2.27;1.23;;;;;;;;;;5112224;28;20451;-70
2022/06/13 03:36:48;;;;;;;2.80;1.77;;;;;;;;;;5112113;28;20543;-70
2022/06/13 03:39:18;;;;;;;2.63;1.77;;;;;;;;;;5112004;28;20451;-70
2022/06/13 03:41:47;;;;;;;3.10;1.40;;;;;;;;;;5112452;28;20817;-70
2022/06/13 03:44:15;;;;;;;1.73;1.53;;;;;;;;;;5112176;28;20447;-70
2022/06/13 03:46:45;;;;;;;2.03;1.70;;;;;;;;;;5111771;28;20748;-70
2022/06/13 03:49:16;;;;;;;2.30;1.63;;;;;;;;;;5111710;28;20448;-70
2022/06/13 03:51:45;;;;;;;2.60;1.60;;;;;;;;;;5112224;28;20448;-70
2022/06/13 03:54:14;;;;;;;2.00;1.37;;;;;;;;;;5111846;28;20538;-69
2022/06/13 03:56:44;;;;;;;3.67;1.63;;;;;;;;;;5111818;28;20857;-70
2022/06/13 03:59:13;;;;;;;2.13;1.50;;;;;;;;;;5111567;28;20458;-70
2022/06/13 04:01:41;;;;;;;2.03;1.47;;;;;;;;;;5111687;28;20480;-71
2022/06/13 04:04:15;;;;;;;4.47;1.70;;;;;;;;;;5110899;28;20446;-69
2022/06/13 04:06:44;;;;;;;4.23;1.73;;;;;;;;;;5112181;28;20451;-70
2022/06/13 04:09:13;;;;;;;2.57;1.90;;;;;;;;;;5110825;28;20523;-70
2022/06/13 04:11:47;;;;;;;3.30;1.50;;;;;;;;;;5111519;28;20456;-71
2022/06/13 04:14:23;;;;;;;1.83;1.73;;;;;;;;;;5111475;28;20443;-71
2022/06/13 04:16:57;;;;;;;2.50;1.30;;;;;;;;;;5109339;28;20454;-72
2022/06/13 04:19:32;;;;;;;2.80;1.20;;;;;;;;;;5098666;28;20491;-70
2022/06/13 04:22:06;;;;;;;2.53;2.07;;;;;;;;;;5102536;28;20470;-70
2022/06/13 04:24:38;;;;;;;2.70;1.90;;;;;;;;;;5111869;28;20488;-72
2022/06/13 04:27:08;;;;;;;2.60;1.63;;;;;;;;;;5110606;28;20723;-70
2022/06/13 04:29:38;;;;;;;3.70;1.30;;;;;;;;;;5111385;28;20805;-72
2022/06/13 04:32:09;;;;;;;2.20;1.90;;;;;;;;;;5111027;28;20913;-70
2022/06/13 04:34:39;;;;;;;3.60;1.77;;;;;;;;;;5109288;28;20888;-70
2022/06/13 04:37:09;;;;;;;6.27;1.70;;;;;;;;;;5110631;28;20443;-69
2022/06/13 04:39:38;;;;;;;2.10;1.60;;;;;;;;;;5110664;28;20455;-70
2022/06/13 04:42:06;;;;;;;2.17;1.27;;;;;;;;;;5101017;28;20528;-73
2022/06/13 04:44:35;;;;;;;3.30;1.80;;;;;;;;;;5111250;28;20440;-73
2022/06/13 04:47:02;;;;;;;2.73;1.50;;;;;;;;;;5110577;28;20936;-70
2022/06/13 04:49:32;;;;;;;3.20;2.30;;;;;;;;;;5110661;28;20459;-69
2022/06/13 04:52:01;;;;;;;1.87;1.67;;;;;;;;;;5109175;28;20455;-71
2022/06/13 04:54:32;;;;;;;2.37;1.90;;;;;;;;;;5111046;28;20529;-70
2022/06/13 04:57:00;;;;;;;4.50;1.57;;;;;;;;;;5109855;28;20939;-71
2022/06/13 04:59:27;;;;;;;2.77;1.70;;;;;;;;;;5109004;28;20462;-68
2022/06/13 05:01:55;;;;;;;2.53;1.60;;;;;;;;;;5110042;28;20482;-68
2022/06/13 05:04:24;;;;;;;2.90;1.63;;;;;;;;;;5110540;28;20440;-71
2022/06/13 05:06:52;;;;;;;2.20;1.40;;;;;;;;;;5101704;28;20482;-70
2022/06/13 05:09:21;;;;;;;3.30;1.50;;;;;;;;;;5110515;28;20541;-70
2022/06/13 05:11:52;;;;;;;4.13;2.00;;;;;;;;;;5110315;28;20452;-70
2022/06/13 05:14:21;;;;;;;3.87;2.60;;;;;;;;;;5111038;28;20447;-70
2022/06/13 05:16:54;;;;;;;5.00;1.70;;;;;;;;;;5110680;28;20452;-70
2022/06/13 05:19:36;;;;;;;4.33;1.50;;;;;;;;;;5110837;28;20452;-70
2022/06/13 05:22:10;;;;;;;4.90;1.70;;;;;;;;;;5110435;28;20502;-69
2022/06/13 05:24:47;;;;;;;4.80;1.80;;;;;;;;;;5111124;28;20450;-69
2022/06/13 05:27:16;;;;;;;2.57;1.60;;;;;;;;;;5111052;28;20483;-69
2022/06/13 05:29:43;;;;;;;2.70;2.03;;;;;;;;;;5110474;28;20444;-70
2022/06/13 05:32:12;;;;;;;3.77;1.90;;;;;;;;;;5110432;28;20450;-69
2022/06/13 05:34:41;;;;;;;2.53;1.83;;;;;;;;;;5110494;28;20455;-69
2022/06/13 05:37:08;;;;;;;1.90;1.63;;;;;;;;;;5096788;28;20847;-70
2022/06/13 05:39:36;;;;;;;4.60;2.20;;;;;;;;;;5110138;28;20470;-70
2022/06/13 05:42:03;;;;;;;2.60;1.80;;;;;;;;;;5109798;28;20480;-69
2022/06/13 05:44:31;;;;;;;5.47;1.87;;;;;;;;;;5110607;28;20443;-69
2022/06/13 05:46:59;;;;;;;7.30;1.73;;;;;;;;;;5111775;28;20815;-70
2022/06/13 05:49:26;;;;;;;3.80;1.80;;;;;;;;;;5114166;28;20446;-70
2022/06/13 05:51:53;;;;;;;4.37;1.77;;;;;;;;;;5113932;28;20454;-70
2022/06/13 05:54:20;;;;;;;5.10;1.87;;;;;;;;;;5114434;28;20507;-70
2022/06/13 05:56:47;;;;;;;2.70;1.50;;;;;;;;;;5113564;28;20809;-70
2022/06/13 05:59:14;;;;;;;2.70;1.87;;;;;;;;;;5114134;28;20447;-69
2022/06/13 06:01:43;;;;;;;2.33;1.57;;;;;;;;;;5114753;28;20824;-69
2022/06/13 06:04:10;;;;;;;4.23;2.07;;;;;;;;;;5113745;28;20575;-69
2022/06/13 06:06:38;;;;;;;4.20;1.53;;;;;;;;;;5114452;28;20451;-70
2022/06/13 06:09:06;;;;;;;4.20;2.00;;;;;;;;;;5113446;28;20859;-70
2022/06/13 06:11:36;;;;;;;4.17;1.80;;;;;;;;;;5114082;28;20452;-69
2022/06/13 06:14:03;;;;;;;1.90;1.50;;;;;;;;;;5113806;28;20448;-69
2022/06/13 06:16:30;;;;;;;3.03;2.27;;;;;;;;;;5114360;28;20462;-69
2022/06/13 06:18:58;;;;;;;3.57;1.53;;;;;;;;;;5112796;28;20444;-69
2022/06/13 06:21:26;;;;;;;3.73;2.07;;;;;;;;;;5114318;28;20479;-69
2022/06/13 06:23:53;;;;;;;4.03;1.93;;;;;;;;;;5113635;28;20450;-69
2022/06/13 06:26:22;;;;;;;3.00;1.40;;;;;;;;;;5113844;28;20573;-70
2022/06/13 06:28:49;;;;;;;3.80;1.67;;;;;;;;;;5113200;28;20443;-70
2022/06/13 06:31:16;;;;;;;3.00;1.93;;;;;;;;;;5114231;28;20443;-70
2022/06/13 06:33:43;;;;;;;2.20;1.70;;;;;;;;;;5114073;28;20447;-69
2022/06/13 06:36:13;;;;;;;1.83;1.63;;;;;;;;;;5113121;28;20452;-70
2022/06/13 06:38:40;;;;;;;2.43;1.47;;;;;;;;;;5113376;28;20447;-69
2022/06/13 06:41:07;;;;;;;3.40;1.40;;;;;;;;;;5113091;28;20489;-69
2022/06/13 06:43:35;;;;;;;4.40;1.70;;;;;;;;;;5113553;28;20450;-69
2022/06/13 06:46:02;;;;;;;2.13;1.40;;;;;;;;;;5113160;28;20474;-69
2022/06/13 06:48:29;;;;;;;4.40;1.70;;;;;;;;;;5112985;28;20939;-69
2022/06/13 06:50:56;;;;;;;6.03;1.50;;;;;;;;;;5112690;28;20939;-69
2022/06/13 06:53:26;;;;;;;8.57;1.70;;;;;;;;;;5099828;28;20451;-69
2022/06/13 07:01:31;;;;;;;1.67;1.10;;;;;;;;;;5113234;28;20507;-69
2022/06/13 07:03:58;;;;;;;2.47;1.43;;;;;;;;;;5112739;28;20448;-69
2022/06/13 07:06:25;;;;;;;4.20;1.47;;;;;;;;;;5113349;28;20444;-69
2022/06/13 07:08:54;;;;;;;1.93;1.50;;;;;;;;;;5111854;28;20562;-69
2022/06/13 07:14:08;;;;;;;2.83;2.63;;;;;;;;;;5112535;28;20430;-69
2022/06/13 07:16:35;;;;;;;4.00;1.50;;;;;;;;;;5112988;28;20440;-69
2022/06/13 07:19:02;;;;;;;3.00;1.60;;;;;;;;;;5111671;28;20960;-69
2022/06/13 07:21:29;;;;;;;2.63;1.50;;;;;;;;;;5112623;28;20490;-69
2022/06/13 07:23:58;;;;;;;2.70;1.40;;;;;;;;;;5112489;28;20443;-69
2022/06/13 07:26:25;;;;;;;2.33;1.60;;;;;;;;;;5112682;28;20479;-69
2022/06/13 07:28:52;;;;;;;3.20;1.60;;;;;;;;;;5111937;28;20454;-69
2022/06/13 07:31:21;;;;;;;2.17;1.50;;;;;;;;;;5112471;28;20952;-69
2022/06/13 07:33:48;;;;;;;3.30;1.43;;;;;;;;;;5112098;28;20451;-69
2022/06/13 07:36:15;;;;;;;3.77;1.97;;;;;;;;;;5112997;28;20454;-69
2022/06/13 07:38:43;;;;;;;6.40;1.73;;;;;;;;;;5098781;28;20444;-69
2022/06/13 07:41:13;;;;;;;3.60;1.63;;;;;;;;;;5112065;28;21028;-70
2022/06/13 07:43:41;;;;;;;2.67;1.43;;;;;;;;;;5113085;28;20527;-69
2022/06/13 07:46:08;;;;;;;2.47;1.87;;;;;;;;;;5112221;28;20451;-70
2022/06/13 07:48:35;;;;;;;2.77;1.90;;;;;;;;;;5112463;28;20458;-69
2022/06/13 07:51:05;;;;;;;3.40;2.10;;;;;;;;;;5112221;28;20451;-69
2022/06/13 07:53:32;;;;;;;2.30;1.60;;;;;;;;;;5112858;28;20452;-69
2022/06/13 07:56:00;;;;;;;4.07;1.63;;;;;;;;;;5111644;28;20462;-69
2022/06/13 07:58:32;;;;;;;6.77;2.20;;;;;;;;;;5112355;28;20462;-70
2022/06/13 08:00:59;;;;;;;3.23;1.57;;;;;;;;;;5111868;28;20444;-70
2022/06/13 08:03:29;;;;;;;2.03;1.40;;;;;;;;;;5112362;28;20491;-70
2022/06/13 08:05:56;;;;;;;5.50;1.50;;;;;;;;;;5112030;28;20432;-70
2022/06/13 08:08:23;;;;;;;2.60;1.63;;;;;;;;;;5112539;28;20448;-70
2022/06/13 08:10:51;;;;;;;2.20;1.47;;;;;;;;;;5111437;28;20444;-70
2022/06/13 08:13:19;;;;;;;5.30;1.83;;;;;;;;;;5103052;28;20448;-70
2022/06/13 08:15:48;;;;;;;5.23;1.97;;;;;;;;;;5111609;28;20950;-71
2022/06/13 08:18:16;;;;;;;3.33;1.60;;;;;;;;;;5112396;28;20816;-71
2022/06/13 08:20:44;;;;;;;4.20;1.80;;;;;;;;;;5111709;28;21028;-70
2022/06/13 08:23:13;;;;;;;3.37;1.43;;;;;;;;;;5112362;28;20480;-70
2022/06/13 08:25:41;;;;;;;2.00;1.77;;;;;;;;;;5112215;28;20464;-70
2022/06/13 08:28:09;;;;;;;1.70;1.60;;;;;;;;;;5111876;28;20940;-70
2022/06/13 08:30:38;;;;;;;2.63;1.70;;;;;;;;;;5111728;28;20849;-70
2022/06/13 08:33:07;;;;;;;3.07;1.77;;;;;;;;;;5111134;28;20869;-70
2022/06/13 08:35:34;;;;;;;3.20;1.60;;;;;;;;;;5111951;28;20498;-70
2022/06/13 08:38:03;;;;;;;6.70;1.33;;;;;;;;;;5111417;28;20452;-70
2022/06/13 08:40:34;;;;;;;2.47;1.40;;;;;;;;;;5111936;28;20443;-70
2022/06/13 08:43:05;;;;;;;5.50;1.80;;;;;;;;;;5111403;28;20476;-70
2022/06/13 08:45:34;;;;;;;3.43;1.70;;;;;;;;;;5111861;28;20451;-70
2022/06/13 08:48:06;;;;;;;4.50;1.83;;;;;;;;;;5111344;28;20538;-70
2022/06/13 08:50:38;;;;;;;2.63;1.37;;;;;;;;;;5111097;28;20440;-70
2022/06/13 08:53:08;;;;;;;2.20;2.00;;;;;;;;;;5111234;28;20439;-70
2022/06/13 08:55:39;;;;;;;3.87;1.60;;;;;;;;;;5111855;28;20459;-70
2022/06/13 08:58:09;;;;;;;4.23;1.70;;;;;;;;;;5110917;28;20455;-70
2022/06/13 09:00:37;;;;;;;7.33;2.10;;;;;;;;;;5111209;28;20447;-71
2022/06/13 09:03:09;;;;;;;2.87;1.40;;;;;;;;;;5110821;28;20475;-70
2022/06/13 09:05:40;;;;;;;5.33;1.77;;;;;;;;;;5111758;28;20436;-70
2022/06/13 09:08:11;;;;;;;2.07;1.83;;;;;;;;;;5111214;28;20444;-68
2022/06/13 09:10:41;;;;;;;1.97;1.50;;;;;;;;;;5110990;28;20806;-69
2022/06/13 09:13:12;;;;;;;3.30;2.10;;;;;;;;;;5110926;28;20863;-70
2022/06/13 09:15:41;;;;;;;2.40;2.07;;;;;;;;;;5111502;28;20467;-70
2022/06/13 09:18:16;;;;;;;1.93;1.73;;;;;;;;;;5110718;28;20466;-71
2022/06/13 09:20:50;;;;;;;2.87;2.00;;;;;;;;;;5111535;28;20431;-70
2022/06/13 09:23:21;;;;;;;3.27;1.80;;;;;;;;;;5115448;28;20653;-71
2022/06/13 09:25:51;;;;;;;3.17;1.37;;;23.80;99.90;;;;;;5101722;28;20451;-71
2022/06/13 09:28:23;;;;;;;2.50;1.43;;;21.00;99.90;;;;;;5114931;28;20541;-71
2022/06/13 09:30:55;;;;;;;3.23;1.70;;;21.00;99.90;;;;;;5115085;28;20760;-70
2022/06/13 09:33:27;;;;;;;1.90;1.63;;;20.70;99.90;;;;;;5115441;28;20448;-70
2022/06/13 09:35:57;;;;;;;2.43;1.30;;;20.70;99.90;;;;;;5114591;28;20436;-71
2022/06/13 09:38:27;;;;;;;1.57;1.47;;;20.70;99.90;;;;;;5115104;28;20444;-71
2022/06/13 09:41:07;;;;;;;2.77;1.20;;;21.00;99.90;;;;;;5114931;28;20452;-71
2022/06/13 09:43:46;;;;;;;2.13;1.60;;;21.20;99.90;;;;;;5115046;28;20859;-71
2022/06/13 09:46:20;;;;;;;4.57;2.33;;;21.20;99.90;;;;;;5115546;28;20440;-71
2022/06/13 09:49:00;;;;;;;1.80;1.60;;;21.20;99.90;;;;;;5113926;27;20478;-71
2022/06/13 09:51:42;;;;;;;8.00;2.00;;;21.30;99.90;;;;;;5115322;28;20450;-71
2022/06/13 09:54:15;;;;;;;5.13;1.93;;;21.30;99.90;;;;;;5114397;28;20510;-71
2022/06/13 09:56:51;;;;;;;1.60;1.40;;;21.50;99.90;;;;;;5115519;28;20460;-70
2022/06/13 09:59:31;;;;;;;2.10;1.50;;;21.60;99.90;;;;;;5114260;28;20435;-71
2022/06/13 10:02:03;;;;;;;3.50;2.00;;;21.60;99.90;;;;;;5114429;28;20451;-71
2022/06/13 10:04:39;;;;;;;2.93;1.87;;;21.80;99.90;;;;;;5114571;28;20428;-71
2022/06/13 10:07:14;;;;;;;2.07;1.33;;;21.80;99.90;;;;;;5114582;28;20982;-71
2022/06/13 10:09:48;;;;;;;4.47;1.60;;;21.60;99.90;;;;;;5102476;28;20447;-71
2022/06/13 10:12:26;;;;;;;3.17;1.80;;;21.50;99.90;;;;;;5114648;28;20966;-71
2022/06/13 10:15:21;;;;;;;1.97;1.40;;;21.60;99.90;;;;;;5113879;28;20450;-71
2022/06/13 10:18:10;;;;;;;2.73;1.87;;;21.60;99.90;;;;;;5113889;28;20459;-71
2022/06/13 10:20:42;;;;;;;2.53;1.40;;;21.80;99.90;;;;;;5114298;28;20440;-71
2022/06/13 10:23:19;;;;;;;1.30;1.13;;;21.80;99.90;;;;;;5113660;27;20467;-71
2022/06/13 10:25:58;;;;;;;2.60;1.87;;;22.10;99.90;;;;;;5113716;28;20455;-72
2022/06/13 10:28:41;;;;;;;3.10;1.53;;;22.10;99.90;;;;;;5113647;28;20442;-71
2022/06/13 10:31:16;;;;;;;1.37;1.27;;;22.30;99.90;;;;;;5113659;28;20439;-70
2022/06/13 10:33:54;;;;;;;2.93;1.43;;;21.90;99.90;;;;;;5113957;28;20443;-70
2022/06/13 10:36:26;;;;;;;5.70;1.20;;;21.70;99.90;;;;;;5114433;28;20440;-70
2022/06/13 10:39:01;;;;;;;1.80;1.13;;;22.00;99.90;;;;;;5113099;28;20446;-71
2022/06/13 10:41:31;;;;;;;1.60;1.47;;;21.90;99.90;;;;;;5114344;28;20435;-71
2022/06/13 10:43:59;;;;;;;3.00;1.30;;;22.10;99.90;;;;;;5113751;28;20519;-71
2022/06/13 10:46:26;;;;;;;2.47;1.17;;;22.20;97.20;;;;;;5114128;28;20508;-71
2022/06/13 10:48:58;;;;;;;1.30;1.10;;;22.30;93.10;;;;;;5112971;28;20813;-70
2022/06/13 10:51:25;;;;;;;2.73;1.60;;;22.50;85.90;;;;;;5114018;28;20444;-71
2022/06/13 10:53:57;;;;;;;2.20;1.60;;;22.40;81.80;;;;;;5113549;28;20538;-71
2022/06/13 10:56:30;;;;;;;1.33;1.23;;;22.40;82.30;;;;;;5114129;28;20455;-71
2022/06/13 10:58:59;;;;;;;3.40;1.17;;;22.50;77.60;;;;;;5113165;28;20450;-71
2022/06/13 11:01:28;;;;;;;3.33;1.50;;;22.60;81.20;;;;;;5113849;28;20454;-71
2022/06/13 11:04:06;;;;;;;1.30;1.20;;;22.70;73.00;;;;;;5113377;28;20480;-71
2022/06/13 11:06:38;;;;;;;1.97;1.30;;;22.50;75.20;;;;;;5113520;28;20455;-71
2022/06/13 11:09:19;;;;;;;3.27;1.30;;;22.50;72.10;;;;;;5112784;28;20573;-70
2022/06/13 11:11:48;;;;;;;1.80;1.30;;;22.80;71.10;;;;;;5113363;28;20867;-72
2022/06/13 11:14:34;;;;;;;1.50;1.20;;;23.10;73.10;;;;;;5113472;28;20444;-71
2022/06/13 11:22:40;;;;;;;1.60;1.50;;;23.80;76.40;;;;;;5113342;28;20559;-69
2022/06/13 11:25:18;;;;;;;1.97;1.20;;;24.00;53.60;;;;;;5112483;28;20436;-69
2022/06/13 11:27:50;;;;;;;2.43;1.40;;;23.50;50.70;;;;;;5113333;28;20475;-70
2022/06/13 11:30:42;;;;;;;3.03;1.83;;;23.90;48.30;;;;;;5112899;28;20788;-70
2022/06/13 11:33:26;;;;;;;6.00;1.50;;;23.90;46.40;;;;;;5103613;28;20535;-70
2022/06/13 11:35:56;;;;;;;1.53;1.20;;;23.80;46.20;;;;;;5112453;28;20443;-70
2022/06/13 11:38:26;;;;;;;3.50;1.53;;;23.50;42.60;;;;;;5112981;28;20456;-70
2022/06/13 11:41:04;;;;;;;5.13;1.60;;;23.80;42.20;;;;;;5112500;28;20444;-70
2022/06/13 11:43:38;;;;;;;2.53;1.53;;;23.60;40.90;;;;;;5112668;28;20472;-70
2022/06/13 11:46:08;;;;;;;1.30;1.20;;;23.50;37.90;;;;;;5112194;28;20770;-70
2022/06/13 11:48:35;;;;;;;1.27;1.10;;;23.20;37.50;;;;;;5099411;28;20450;-70
2022/06/13 11:51:06;;;;;;;1.40;1.27;;;23.60;35.40;;;;;;5111847;28;20439;-71
2022/06/13 11:53:39;;;;;;;2.43;1.70;;;23.80;32.30;;;;;;5112965;28;20551;-70
2022/06/13 11:56:12;;;;;;;1.40;1.30;;;24.10;29.70;;;;;;5111807;28;21225;-70
2022/06/13 11:58:46;;;;;;;3.20;1.67;;;24.10;30.00;;;;;;5112194;28;20436;-70
2022/06/13 12:01:19;;;;;;;1.50;1.23;;;24.20;28.00;;;;;;5112750;28;20802;-69
2022/06/13 12:03:57;;;;;;;1.73;1.40;;;24.50;32.00;;;;;;5112149;28;20478;-71
2022/06/13 12:06:25;;;;;;;1.90;1.70;;;24.40;28.90;;;;;;5109509;28;20439;-70
2022/06/13 12:09:03;;;;;;;2.13;1.57;;;23.80;25.70;;;;;;5111403;28;20451;-70
2022/06/13 12:11:30;;;;;;;1.50;1.10;;;23.50;26.60;;;;;;5112162;28;20444;-70
2022/06/13 12:14:01;;;;;;;2.80;1.50;;;23.70;27.30;;;;;;5111794;28;20447;-70
2022/06/13 12:16:38;;;;;;;2.00;1.30;;;23.40;23.00;;;;;;5112226;28;20531;-70
2022/06/13 12:19:15;;;;;;;1.73;1.03;;;23.40;19.80;;;;;;5111191;28;20942;-70
2022/06/13 12:21:49;;;;;;;1.63;1.10;;;23.50;15.30;;;;;;5112081;28;20440;-70
2022/06/13 12:24:23;;;;;;;1.30;1.20;;;23.50;15.50;;;;;;5112275;28;20471;-70
2022/06/13 12:27:09;;;;;;;1.97;1.37;;;23.50;16.60;;;;;;5111264;28;20483;-70
2022/06/13 12:30:12;;;;;;;1.40;1.30;;;23.50;14.80;;;;;;5111502;28;20818;-70
2022/06/13 12:32:44;;;;;;;3.17;1.60;;;23.30;16.90;;;;;;5096761;28;20954;-70
2022/06/13 12:35:28;;;;;;;1.30;1.20;;;23.20;16.10;;;;;;5112070;28;20447;-70
2022/06/13 12:38:03;;;;;;;1.00;0.90;;;23.00;15.80;;;;;;5111553;28;20793;-70
2022/06/13 12:40:41;;;;;;;1.63;0.83;;;22.70;14.30;;;;;;5098917;28;20527;-70
2022/06/13 12:43:30;;;;;;;1.23;1.13;;;22.90;13.10;;;;;;5111235;28;20476;-70
2022/06/13 12:46:16;;;;;;;1.33;1.23;;;23.00;10.20;;;;;;5111412;28;20448;-70
2022/06/13 12:48:54;;;;;;;2.50;1.03;;;23.40;11.30;;;;;;5111499;28;20457;-70
2022/06/13 12:51:28;;;;;;;2.60;1.00;;;23.30;5.90;;;;;;5111440;28;20459;-71
2022/06/13 12:54:39;;;;;;;2.17;1.60;;;23.60;5.50;;;;;;5111552;28;20443;-70
2022/06/13 12:57:15;;;;;;;1.20;1.10;;;24.20;5.10;;;;;;5100532;28;20687;-70
2022/06/13 13:00:00;;;;;;;2.03;1.20;;;23.90;6.10;;;;;;5111563;28;20435;-70
2022/06/13 13:02:37;;;;;;;1.33;1.23;;;24.00;8.30;;;;;;5111698;28;20436;-71
2022/06/13 13:05:23;;;;;;;1.80;1.27;;;24.10;7.90;;;;;;5111157;28;20457;-70
2022/06/13 13:08:10;;;;;;;1.00;0.87;;;24.20;5.30;;;;;;5111221;28;20770;-70
2022/06/13 13:10:54;;;;;;;2.07;1.20;;;24.50;2.90;;;;;;5111463;28;20451;-70
2022/06/13 13:13:38;;;;;;;2.37;1.50;;;24.00;1.20;;;;;;5103523;28;20468;-70
2022/06/13 13:16:10;;;;;;;1.70;1.10;;;23.70;1.00;;;;;;5110979;28;20664;-70
2022/06/13 13:18:52;;;;;;;1.97;1.20;;;23.80;1.00;;;;;;5111167;28;20485;-70
2022/06/13 13:21:22;;;;;;;1.80;1.30;;;24.00;1.00;;;;;;5111438;28;20478;-71
2022/06/13 13:24:03;;;;;;;1.87;1.33;;;24.20;1.00;;;;;;5110895;28;20544;-70
2022/06/13 13:26:38;;;;;;;2.67;1.20;;;24.00;1.00;;;;;;5111273;28;20509;-69
2022/06/13 13:29:21;;;;;;;2.90;0.90;;;23.80;1.00;;;;;;5110578;28;20435;-70
2022/06/13 13:31:56;;;;;;;1.10;1.00;;;24.00;1.00;;;;;;5110604;28;20506;-70
2022/06/13 13:34:38;;;;;;;1.13;0.80;;;24.20;1.00;;;;;;5111311;28;20443;-69
2022/06/13 13:37:19;;;;;;;2.00;1.10;;;23.80;1.00;;;;;;5097768;28;20896;-69
2022/06/13 13:39:53;;;;;;;1.33;0.97;;;23.50;1.00;;;;;;5110329;28;20448;-70
2022/06/13 13:42:25;;;;;;;1.20;1.10;;;23.50;1.00;;;;;;5111248;28;20448;-70
2022/06/13 13:45:00;;;;;;;1.17;1.00;;;23.80;1.00;;;;;;5110179;28;20479;-71
2022/06/13 13:47:29;;;;;;;1.20;0.83;;;24.30;1.00;;;;;;5110985;28;20444;-71
2022/06/13 13:50:02;;;;;;;2.03;1.57;;;24.50;1.00;;;;;;5109950;28;20450;-70
2022/06/13 13:52:30;;;;;;;2.07;1.33;;;;;;;;;;5111214;28;20444;-71
2022/06/13 13:55:01;;;;;;;1.23;0.93;;;;;;;;;;5110598;28;20444;-70
2022/06/13 13:57:31;;;;;;;2.50;1.10;;;;;;;;;;5110983;28;20524;-70
2022/06/13 14:00:02;;;;;;;1.23;0.97;;;24.40;1.00;;;;;;5110293;28;20443;-69
2022/06/13 14:02:44;;;;;;;2.33;1.00;;;24.10;1.00;;;;;;5111255;28;20444;-69
2022/06/13 14:05:19;;;;;;;1.30;0.90;;;;;;;;;;5110462;28;20496;-70
2022/06/13 14:07:52;;;;;;;1.00;0.90;;;;;;;;;;5111524;28;20764;-71
2022/06/13 14:10:21;;;;;;;1.13;1.03;;;;;;;;;;5115113;28;20448;-70
2022/06/13 14:13:07;;;;;;;1.73;1.40;;;;;;;;;;5109967;28;20455;-70
2022/06/13 14:15:37;;;;;;;1.37;0.93;;;;;;;;;;5114803;28;20444;-69
2022/06/13 14:18:06;;;;;;;1.13;1.03;;;;;;;;;;5113751;28;20443;-70
2022/06/13 14:20:35;;;;;;;1.33;1.23;;;;;;;;;;5114309;28;20444;-70
2022/06/13 14:23:03;;;;;;;1.90;1.10;;;;;;;;;;5113559;28;20447;-69
2022/06/13 14:25:38;;;;;;;1.57;1.40;;;;;;;;;;5114454;28;20451;-69
2022/06/13 14:28:07;;;;;;;1.67;1.20;;;;;;;;;;5113767;28;20950;-69
2022/06/13 14:36:08;;;;;;;1.03;0.93;;;;;;;;;;5113876;28;20687;-69
2022/06/13 14:38:46;;;;;;;1.40;1.07;;;;;;;;;;5113578;28;20798;-70
2022/06/13 14:41:20;;;;;;;1.30;1.10;;;;;;;;;;5114617;28;20447;-70
2022/06/13 14:43:52;;;;;;;1.30;1.03;;;;;;;;;;5100657;28;20888;-70
2022/06/13 14:46:22;;;;;;;0.90;0.80;;;;;;;;;;5114135;28;20439;-70
2022/06/13 14:48:52;;;;;;;2.30;1.20;;;;;;;;;;5112984;28;20941;-70
2022/06/13 14:51:23;;;;;;;1.13;1.03;;;;;;;;;;5113647;28;20451;-71
2022/06/13 14:53:51;;;;;;;2.10;1.63;;;;;;;;;;5113285;28;20451;-71